Station: Padthaway

  Atmospheric Gas Attenuation - ITU Rec 676-11   --------------- db/100km ---------------
Date Time Temp RH % AH g/m3 Dew Point Wind Direction Speed kph Gust kph Barometer mB Rainfall Since 9am 24GHz 47GHz 76GHz 122GHz 134GHz 241GHz
21 18:20 14.1 67 8.13 8.1 20 22 1013.1 0 18.6 25.1 37.8 99.1 91.9 315.7
21 18:10 14.1 67 8.13 8.1 19 22 1013.1 0 18.6 25.1 37.8 99.1 91.9 315.7
21 18:00 14.2 67 8.18 8.2 20 30 1013.1 0 18.7 25.1 37.9 99.5 92.4 317.6
21 17:50 14.1 67 8.13 8.1 22 32 1013.1 0 18.6 25.1 37.8 99.1 91.9 315.7
21 17:40 14.1 67 8.13 8.1 15 17 1013.1 0 18.6 25.1 37.8 99.1 91.9 315.7
21 17:30 14.2 64 7.82 7.5 19 22 1013.1 0 17.9 24.5 36.5 95.7 87.8 301.4
21 17:20 14.5 62 7.71 7.3 22 28 1013.1 0 17.7 24.3 36.0 94.2 86.1 295.3
21 17:10 15 59 7.57 7.1 24 30 1013.1 0 17.3 23.9 35.2 92.2 83.8 287.3
21 17:00 15.5 58 7.67 7.3 26 39 1013.1 0 17.5 24.0 35.4 92.6 84.5 289.9
21 16:50 15.7 57 7.63 7.2 26 33 1013.1 0 17.4 23.8 35.1 92.0 83.8 287.4
21 16:40 15.9 56 7.58 7.1 22 28 1013.1 0 17.3 23.7 34.9 91.3 82.9 284.6
21 16:30 16 54 7.36 6.7 32 44 1013.1 0 16.9 23.4 34.0 89.0 80.1 274.7
21 16:20 16.3 58 8.05 8 33 39 1013.1 0 18.3 24.3 36.5 95.5 88.3 303.6
21 16:10 16.4 58 8.09 8.1 32 44 1013.1 0 18.4 24.4 36.6 95.8 88.7 304.9
21 16:00 16.6 57 8.05 8.1 32 50 1013.1 0 18.3 24.2 36.3 95.2 88.0 302.4
21 15:50 16.4 58 8.09 8.1 35 46 1013.1 0 18.4 24.4 36.6 95.8 88.7 304.9
21 15:40 16.3 56 7.77 7.5 35 44 1013.1 0 17.7 23.9 35.4 92.7 84.8 291.4
21 15:30 16.9 54 7.77 7.5 37 56 1013.1 0 17.7 23.7 35.1 92.0 84.2 289.2
21 15:20 17.7 53 8 8 30 35 1013.1 0 18.1 23.9 35.6 93.4 86.2 296.1
21 15:10 17.6 51 7.65 7.4 33 44 1013.1 0 17.4 23.4 34.4 90.1 82.0 281.6
21 15:00 17.7 48 7.24 6.6 43 63 1013.1 0 16.5 22.7 32.9 86.0 77.0 264.0
21 14:50 18 47 7.22 6.5 39 52 1013.1 0 16.5 22.6 32.7 85.4 76.5 262.1
21 14:40 18.2 45 6.99 6.1 43 56 1013.1 0 16.0 22.3 31.8 83.0 73.6 252.0
21 14:30 18.3 45 7.04 6.2 41 61 1013.1 0 16.1 22.3 31.9 83.4 74.1 253.7
21 14:20 18.2 51 7.93 7.9 26 35 1013.1 0 18.0 23.6 35.2 92.1 84.8 291.3
21 14:10 17 48 6.95 5.9 37 46 1013.1 0 15.9 22.5 32.1 83.9 74.2 254.1
21 14:00 17.2 46 6.74 5.5 43 63 1013.1 0 15.5 22.1 31.3 81.7 71.5 244.8
21 13:50 16.5 47 6.6 5.2 33 46 1013.1 0 15.2 22.1 31.0 81.0 70.5 241.1
21 13:40 17 44 6.37 4.7 30 41 1013.1 0 14.7 21.7 30.0 78.4 67.4 230.2
21 13:30 16.8 41 5.86 3.5 32 50 1013.1 0 13.7 21.0 28.3 73.8 61.7 210.1
21 13:20 17.1 37 5.39 2.3 37 50 1013.1 0 12.7 20.3 26.6 69.2 56.1 190.7
21 13:10 17.4 37 5.48 2.6 41 46 1013.1 0 12.8 20.3 26.8 69.8 56.9 193.5
21 13:00 17.1 39 5.68 3.1 35 52 1013.1 0 13.3 20.7 27.6 71.9 59.4 202.1
21 12:50 17.3 41 6.04 3.9 32 39 1013.1 0 14.0 21.1 28.8 75.0 63.3 216.0
21 12:40 17 38 5.5 2.6 35 46 1013.1 0 12.9 20.4 27.0 70.3 57.4 195.3
21 12:30 17.1 39 5.68 3.1 35 54 1013.1 0 13.3 20.7 27.6 71.9 59.4 202.1
21 12:20 17.9 40 6.11 4.1 43 56 1013.1 0 14.1 21.1 28.8 75.1 63.7 217.2
21 12:10 18 41 6.3 4.6 32 41 1013.1 0 14.5 21.3 29.4 76.8 65.7 224.5
21 12:00 17.6 40 6 3.9 32 48 1013.1 0 13.9 21.0 28.5 74.4 62.6 213.6
21 11:50 17.7 42 6.34 4.6 28 33 1013.1 0 14.6 21.5 29.7 77.4 66.5 227.0
21 11:40 17.6 45 6.75 5.5 32 37 1013.1 0 15.5 22.1 31.1 81.4 71.3 244.0
21 11:30 17 48 6.95 5.9 28 43 1013.1 0 15.9 22.5 32.1 83.9 74.2 254.1
21 11:20 16.9 46 6.62 5.2 30 35 1013.1 0 15.3 22.0 30.9 80.8 70.4 240.7
21 11:10 16.9 53 7.62 7.3 22 30 1013.1 0 17.4 23.5 34.6 90.5 82.4 282.7
21 11:00 16.2 49 6.76 5.5 30 41 1013.1 0 15.6 22.4 31.7 82.9 72.7 248.6
21 10:50 16.2 58 8 7.9 26 28 1013.1 0 18.2 24.3 36.3 95.2 87.8 301.8
21 10:40 15.8 52 7 6 30 35 1013.1 0 16.1 22.9 32.7 85.6 75.9 260.0
21 10:30 15.8 54 7.27 6.5 24 35 1013.1 0 16.7 23.3 33.7 88.3 79.2 271.5
21 10:20 15.4 56 7.36 6.7 30 39 1013.1 0 16.9 23.5 34.2 89.6 80.7 276.8
21 10:10 15.1 58 7.48 6.9 26 32 1013.1 0 17.1 23.8 34.8 91.2 82.5 283.1
21 10:00 15.1 60 7.74 7.4 28 35 1013.1 0 17.7 24.2 35.8 93.8 85.8 294.4
21 09:50 14.8 60 7.6 7.1 28 33 1013.1 0 17.4 24.0 35.4 92.7 84.3 289.4
21 09:40 14.5 58 7.21 6.3 32 39 1013.1 0 16.6 23.5 34.1 89.1 79.8 273.4
21 09:30 14.4 62 7.66 7.2 32 44 1013.1 0 17.6 24.2 35.8 93.8 85.5 293.5
21 09:20 14.1 60 7.28 6.5 33 41 1013.1 0 16.8 23.7 34.5 90.3 81.1 277.8
21 09:10 13.8 62 7.39 6.7 32 43 1013.1 0 17.0 24.0 35.0 91.8 82.8 283.7
21 09:00 13.8 63 7.51 6.9 30 41 1013.1 0 17.3 24.2 35.5 93.0 84.3 289.0
21 08:50 13.6 62 7.3 6.5 33 43 1013.1 2.2 16.8 23.9 34.8 91.1 81.8 280.4
21 08:40 13.6 65 7.65 7.2 26 32 1013.1 2.2 17.6 24.4 36.1 94.7 86.3 296.0
21 08:30 13.4 65 7.56 7 24 30 1013.1 2.2 17.4 24.3 35.9 94.0 85.3 292.7
21 08:20 13.1 65 7.42 6.7 33 37 1013.1 2.2 17.1 24.2 35.5 92.9 83.9 287.6
21 08:10 13.1 68 7.76 7.3 22 24 1013.1 2.2 17.8 24.7 36.8 96.4 88.3 302.9
21 08:00 12.7 70 7.79 7.4 22 30 1013.1 2.2 17.9 24.9 37.1 97.2 89.1 305.8
21 07:50 12.4 70 7.65 7.1 19 28 1013.1 2.2 17.6 24.8 36.7 96.1 87.6 300.5
21 07:40 12.1 70 7.51 6.8 22 26 1013.1 2.2 17.3 24.6 36.3 95.0 86.1 295.3
21 07:30 11.9 72 7.63 7 17 22 1013.1 2.2 17.6 24.9 36.8 96.5 87.9 301.5
21 07:20 11.6 72 7.48 6.7 17 19 1013.1 2.2 17.3 24.7 36.4 95.3 86.3 295.8
21 07:10 11.1 75 7.56 6.8 13 17 1013.1 2.2 17.5 25.0 36.9 96.8 87.9 301.4
21 07:00 10.8 76 7.51 6.7 17 22 1013.1 2.2 17.4 25.0 36.9 96.6 87.6 300.2
21 06:50 10.4 78 7.52 6.7 15 19 1013.1 2.2 17.4 25.1 37.1 97.2 88.2 302.2
21 06:40 10 80 7.52 6.7 15 19 1013.1 2.2 17.5 25.2 37.3 97.7 88.6 303.8
21 06:30 9.6 82 7.51 6.7 15 20 1013.1 2.2 17.4 25.3 37.4 98.1 88.9 304.8
21 06:20 9.5 83 7.56 6.8 17 19 1013.1 2.2 17.6 25.4 37.7 98.7 89.7 307.6
21 06:10 9.4 83 7.51 6.7 17 19 1013.1 2.2 17.5 25.4 37.5 98.3 89.2 305.6
21 06:00 9.4 82 7.42 6.5 13 17 1013.1 2.2 17.3 25.2 37.2 97.3 88.0 301.4
21 05:50 9.5 82 7.47 6.6 13 17 1013.1 2.2 17.4 25.3 37.3 97.8 88.5 303.4
21 05:40 9.9 80 7.47 6.6 13 17 1013.1 2.2 17.3 25.2 37.1 97.3 88.1 301.8
21 05:30 10.1 80 7.57 6.8 17 22 1013.1 2.2 17.6 25.3 37.4 98.1 89.2 305.7
21 05:20 10.1 81 7.66 7 17 17 1013.1 2.2 17.7 25.4 37.8 99.1 90.4 309.9
21 05:10 10.2 81 7.71 7.1 19 22 1013.1 2.2 17.9 25.5 38.0 99.5 90.9 311.9
21 04:50 10.5 81 7.86 7.4 17 19 1013.1 2.2 18.2 25.6 38.4 100.7 92.6 317.7
21 04:40 10.4 79 7.62 6.9 17 19 1013.1 2.2 17.6 25.3 37.5 98.3 89.5 306.9
21 04:30 10.7 78 7.66 7 19 24 1013.1 2.2 17.7 25.3 37.5 98.3 89.7 307.6
21 04:20 10.5 78 7.57 6.8 17 19 1013.1 2.2 17.5 25.2 37.2 97.6 88.7 304.2
21 04:10 10.6 80 7.81 7.3 17 19 1013.1 2.2 18.0 25.5 38.2 100.1 91.8 315.0
21 04:00 10.6 81 7.91 7.5 15 19 1013.1 2.2 18.3 25.7 38.6 101.2 93.1 319.7
21 03:50 10.7 82 8.06 7.8 13 15 1013.1 2.2 18.6 25.9 39.1 102.7 95.0 326.4
21 03:40 10.9 81 8.06 7.8 15 17 1013.1 2.2 18.6 25.9 39.0 102.4 94.8 325.5
21 03:30 11.1 83 8.36 8.3 17 20 1013.1 2.2 19.2 26.3 40.2 105.4 98.6 338.9
21 03:20 11 87 8.71 8.9 15 17 1013.1 2.2 20.0 26.9 41.7 109.5 103.5 356.1
21 03:10 10.9 88 8.75 9 11 15 1013.1 2.2 20.1 27.0 41.9 110.1 104.2 358.5
21 03:00 11.2 86 8.72 8.9 13 17 1013.1 2.2 20.0 26.9 41.6 109.3 103.4 355.7
21 02:50 11.4 86 8.83 9.1 13 17 1013.1 2.2 20.2 27.0 42.0 110.2 104.6 360.0
21 02:40 11.2 86 8.72 8.9 15 17 1013.1 2.2 20.0 26.9 41.6 109.3 103.4 355.7
21 02:30 11.6 87 9.04 9.5 15 22 1013.1 2.2 20.6 27.3 42.7 112.3 107.3 369.2
21 02:20 11.5 87 8.99 9.4 13 15 1013.1 2.2 20.5 27.2 42.6 111.9 106.7 367.3
21 02:10 11.6 87 9.04 9.5 15 17 1013.1 2.2 20.6 27.3 42.7 112.3 107.3 369.2
21 02:00 11.6 87 9.04 9.5 13 15 1013.1 2.2 20.6 27.3 42.7 112.3 107.3 369.2
21 01:50 11.6 86 8.94 9.3 11 13 1013.1 2.2 20.4 27.1 42.3 111.2 105.9 364.4
21 01:40 11.8 84 8.84 9.2 13 15 1013.1 2.2 20.2 26.9 41.8 109.8 104.2 358.7

Last Refresh: 21-Sep-2020 18:30:08

Most of the information presented on this site is sourced from the Bureau of Meteorology.  Copyright in all material sourced from the Bureau of Meteorology resides with the Commonwealth of Australia.